Time;durP1;ratioP1;P1;durP2;ratioP2;P2;SDS_P1;SDS_P2;PMS_P1;PMS_P2;Temp;Humidity;BMP_temperature;BMP_pressure;BME280_temperature;BME280_humidity;BME280_pressure;Samples;Min_cycle;Max_cycle;Signal;HPM_P1;HPM_P2
2024/03/10 00:00:39;;;;;;;48.10;23.73;;;;;;;1.81;100.00;99980.41;5056252;28;20899;-80
2024/03/10 00:03:12;;;;;;;45.57;23.40;;;;;;;1.69;100.00;99989.34;5048162;28;20435;-82
2024/03/10 00:05:47;;;;;;;51.10;24.48;;;;;;;1.66;100.00;99978.28;5043511;28;20436;-82
2024/03/10 00:08:20;;;;;;;51.42;24.70;;;;;;;2.00;100.00;99984.56;5039628;28;20779;-82
2024/03/10 00:10:53;;;;;;;52.23;24.13;;;;;;;1.81;100.00;99988.47;5060361;28;20516;-81
2024/03/10 00:13:22;;;;;;;52.92;23.38;;;;;;;1.72;100.00;99992.59;5045909;28;20443;-82
2024/03/10 00:15:56;;;;;;;54.28;24.38;;;;;;;1.65;100.00;99990.84;5062525;28;20782;-82
2024/03/10 00:18:29;;;;;;;49.63;23.52;;;;;;;1.72;100.00;99988.03;5065548;28;21376;-83
2024/03/10 00:21:00;;;;;;;51.50;24.55;;;;;;;1.80;100.00;99981.50;5058855;28;21556;-82
2024/03/10 00:23:33;;;;;;;51.20;24.45;;;;;;;1.74;100.00;99995.84;5059450;28;20420;-81
2024/03/10 00:26:05;;;;;;;50.80;25.05;;;;;;;1.74;100.00;99985.94;5049412;28;20421;-82
2024/03/10 00:28:38;;;;;;;46.63;24.88;;;;;;;1.83;100.00;99971.09;5039930;28;20444;-83
2024/03/10 00:31:12;;;;;;;50.70;23.70;;;;;;;1.63;100.00;99974.19;5052730;28;20429;-83
2024/03/10 00:33:46;;;;;;;47.20;22.77;;;;;;;1.55;100.00;99979.09;5053084;28;20425;-84
2024/03/10 00:36:18;;;;;;;47.22;24.17;;;;;;;1.52;100.00;99969.69;5056437;28;20419;-82
2024/03/10 00:38:52;;;;;;;46.72;23.08;;;;;;;1.66;100.00;99972.91;5060387;28;20432;-83
2024/03/10 00:41:25;;;;;;;48.53;24.13;;;;;;;1.57;100.00;99961.72;5058922;28;21051;-83
2024/03/10 00:43:58;;;;;;;47.78;23.48;;;;;;;1.67;100.00;99956.59;5058131;28;20432;-82
2024/03/10 00:46:28;;;;;;;49.75;24.63;;;;;;;1.68;100.00;99958.19;5043158;28;20804;-82
2024/03/10 00:49:01;;;;;;;51.53;24.77;;;;;;;1.58;100.00;99952.63;5033036;28;20803;-82
2024/03/10 00:51:36;;;;;;;48.90;24.00;;;;;;;1.61;100.00;99954.84;5043493;28;20450;-81
2024/03/10 00:54:10;;;;;;;50.33;24.63;;;;;;;1.51;100.00;99947.41;5041947;28;20444;-82
2024/03/10 00:56:44;;;;;;;54.67;24.55;;;;;;;1.55;100.00;99954.97;5057968;28;20425;-82
2024/03/10 00:59:12;;;;;;;51.47;24.05;;;;;;;1.52;100.00;99949.03;5059621;28;20440;-82
2024/03/10 01:01:46;;;;;;;47.97;24.25;;;;;;;1.49;100.00;99946.00;5042460;28;20440;-83
2024/03/10 01:04:19;;;;;;;52.28;24.80;;;;;;;1.68;100.00;99947.47;5039381;28;20809;-82
2024/03/10 01:06:54;;;;;;;49.33;24.67;;;;;;;1.60;100.00;99947.03;5041844;28;20460;-82
2024/03/10 01:09:22;;;;;;;51.80;24.98;;;;;;;1.73;100.00;99954.81;5040627;28;20474;-83
2024/03/10 01:11:51;;;;;;;49.42;24.45;;;;;;;1.63;100.00;99950.06;5056462;28;20450;-83
2024/03/10 01:14:24;;;;;;;49.38;24.73;;;;;;;1.85;100.00;99957.44;5053320;28;20429;-83
2024/03/10 01:17:01;;;;;;;49.03;24.97;;;;;;;1.73;100.00;99946.75;5039675;28;20417;-81
2024/03/10 01:19:29;;;;;;;51.15;24.30;;;;;;;1.66;100.00;99954.94;5055803;28;20420;-80
2024/03/10 01:21:59;;;;;;;49.88;24.80;;;;;;;1.56;100.00;99954.75;5052571;28;20415;-81
2024/03/10 01:24:27;;;;;;;49.63;24.55;;;;;;;1.37;100.00;99951.41;5049974;28;20429;-82
2024/03/10 01:27:01;;;;;;;51.00;24.77;;;;;;;1.40;100.00;99950.13;5055570;28;20428;-82
2024/03/10 01:29:30;;;;;;;50.75;24.63;;;;;;;1.43;100.00;99939.72;5053771;28;20426;-82
2024/03/10 01:31:58;;;;;;;51.05;24.15;;;;;;;1.68;100.00;99946.66;5053045;28;20424;-83
2024/03/10 01:34:27;;;;;;;47.28;23.40;;;;;;;1.40;100.00;99942.09;5052452;28;20428;-82
2024/03/10 01:36:55;;;;;;;50.88;24.00;;;;;;;1.34;100.00;99941.16;5056306;28;20444;-82
2024/03/10 01:39:30;;;;;;;47.83;23.60;;;;;;;1.28;100.00;99944.78;5050142;28;20423;-83
2024/03/10 01:42:05;;;;;;;49.42;24.13;;;;;;;1.42;100.00;99948.00;5053318;28;20832;-82
2024/03/10 01:44:38;;;;;;;56.72;24.70;;;;;;;1.35;100.00;99935.56;5058090;28;20424;-83
2024/03/10 01:47:11;;;;;;;51.40;24.38;;;;;;;1.28;100.00;99942.09;5054027;28;20429;-82
2024/03/10 01:49:40;;;;;;;49.83;24.25;;;;;;;1.23;100.00;99939.31;5037595;28;20778;-81
2024/03/10 01:52:13;;;;;;;55.55;24.85;;;;;;;1.15;100.00;99935.94;5052201;28;20416;-81
2024/03/10 01:54:43;;;;;;;50.53;24.23;;;;;;;1.15;100.00;99930.59;5056159;28;20737;-82
2024/03/10 01:57:12;;;;;;;48.88;24.90;;;;;;;1.46;100.00;99935.78;5042595;28;20894;-82
2024/03/10 01:59:41;;;;;;;53.08;24.70;;;;;;;1.43;100.00;99926.31;5054890;28;20909;-81
2024/03/10 02:02:14;;;;;;;53.50;24.95;;;;;;;1.39;100.00;99927.84;5042782;28;20909;-82
2024/03/10 02:04:43;;;;;;;52.10;25.35;;;;;;;1.39;100.00;99938.56;5056625;28;20432;-81
2024/03/10 02:07:12;;;;;;;52.28;24.67;;;;;;;1.42;100.00;99938.09;5054220;28;20422;-82
2024/03/10 02:09:47;;;;;;;53.60;24.88;;;;;;;1.35;100.00;99937.41;5053980;28;20897;-82
2024/03/10 02:12:21;;;;;;;49.80;24.88;;;;;;;1.35;100.00;99940.94;5038286;28;20930;-82
2024/03/10 02:14:58;;;;;;;48.65;23.83;;;;;;;1.30;100.00;99937.34;5055040;28;20423;-82
2024/03/10 02:17:31;;;;;;;52.30;24.52;;;;;;;1.43;100.00;99934.38;5034243;28;20444;-82
2024/03/10 02:20:14;;;;;;;51.10;23.85;;;;;;;1.27;100.00;99930.59;5032987;28;20427;-82
2024/03/10 02:22:47;;;;;;;50.45;23.75;;;;;;;1.16;100.00;99928.72;5050645;28;20429;-82
2024/03/10 02:25:24;;;;;;;48.63;24.35;;;;;;;1.09;100.00;99930.72;5046081;28;20438;-82
2024/03/10 02:27:59;;;;;;;48.90;24.35;;;;;;;0.92;100.00;99923.41;5054808;28;20424;-82
2024/03/10 02:30:32;;;;;;;48.88;23.27;;;;;;;1.01;100.00;99929.22;5037524;28;20440;-81
2024/03/10 02:47:17;;;;;;;47.95;24.38;;;;;;;0.97;100.00;99912.78;5052134;28;20453;-81
2024/03/10 02:49:50;;;;;;;50.25;23.95;;;;;;;1.01;100.00;99921.19;5040831;28;20429;-82
2024/03/10 02:52:23;;;;;;;51.33;24.77;;;;;;;1.01;100.00;99913.16;5052497;28;21062;-81
2024/03/10 02:54:56;;;;;;;51.17;24.13;;;;;;;0.81;100.00;99910.81;5044267;28;20431;-81
2024/03/10 02:57:25;;;;;;;51.03;24.08;;;;;;;0.90;100.00;99914.78;5054738;28;20427;-82
2024/03/10 03:00:00;;;;;;;51.78;25.30;;;;;;;0.90;100.00;99912.13;5053182;28;20436;-81
2024/03/10 03:02:34;;;;;;;52.97;25.10;;;;;;;1.02;100.00;99912.06;5050290;28;20423;-80
2024/03/10 03:05:08;;;;;;;53.40;25.08;;;;;;;0.96;100.00;99911.16;5052772;28;20432;-81
2024/03/10 03:07:42;;;;;;;50.50;24.50;;;;;;;1.11;100.00;99913.34;5049919;28;20911;-82
2024/03/10 03:10:16;;;;;;;51.77;24.30;;;;;;;0.92;100.00;99904.63;5052206;28;20515;-80
2024/03/10 03:12:44;;;;;;;53.17;25.47;;;;;;;0.88;100.00;99911.50;5050706;28;20507;-82
2024/03/10 03:15:15;;;;;;;49.50;24.30;;;;;;;0.90;100.00;99906.75;5044419;28;20428;-80
2024/03/10 03:17:44;;;;;;;49.65;23.88;;;;;;;0.80;100.00;99910.03;5050231;28;20437;-79
2024/03/10 03:20:20;;;;;;;49.73;25.10;;;;;;;0.85;100.00;99907.44;5054623;28;20474;-81
2024/03/10 03:22:54;;;;;;;54.47;25.65;;;;;;;0.93;100.00;99905.47;5056304;28;20420;-82
2024/03/10 03:25:28;;;;;;;52.25;24.55;;;;;;;0.89;100.00;99910.47;5045431;28;20419;-82
2024/03/10 03:27:57;;;;;;;56.45;26.33;;;;;;;1.04;100.00;99898.44;5046461;28;21112;-81
2024/03/10 03:30:32;;;;;;;54.00;25.98;;;;;;;0.92;100.00;99901.97;5056827;28;20421;-81
2024/03/10 03:33:06;;;;;;;51.95;25.67;;;;;;;0.98;100.00;99905.56;5052771;28;20430;-82
2024/03/10 03:35:34;;;;;;;52.42;25.60;;;;;;;0.95;100.00;99906.88;5057843;28;20755;-82
2024/03/10 03:38:09;;;;;;;50.17;24.58;;;;;;;0.89;100.00;99904.31;5043498;28;21280;-82
2024/03/10 03:40:43;;;;;;;51.10;24.67;;;;;;;0.82;100.00;99910.59;5051946;28;20440;-81
2024/03/10 03:43:11;;;;;;;54.30;25.83;;;;;;;0.77;100.00;99909.66;5053201;28;20463;-81
2024/03/10 03:45:41;;;;;;;50.47;24.48;;;;;;;0.73;100.00;99903.16;5056523;28;20423;-81
2024/03/10 03:48:14;;;;;;;51.75;24.73;;;;;;;0.72;100.00;99904.19;5050810;28;20434;-81
2024/03/10 03:50:47;;;;;;;51.15;24.75;;;;;;;0.64;100.00;99897.34;5039731;28;20425;-81
2024/03/10 03:53:15;;;;;;;51.80;24.73;;;;;;;0.73;100.00;99903.16;5040655;28;20438;-82
2024/03/10 03:55:49;;;;;;;50.92;24.55;;;;;;;0.64;100.00;99897.34;5056600;28;20906;-81
2024/03/10 03:58:17;;;;;;;58.97;26.55;;;;;;;0.59;100.00;99900.69;5065578;28;20435;-82
2024/03/10 04:00:52;;;;;;;53.08;25.13;;;;;;;0.60;100.00;99899.66;5056235;28;20438;-81
2024/03/10 04:03:25;;;;;;;52.25;24.55;;;;;;;0.63;100.00;99903.75;5055492;28;20797;-81
2024/03/10 04:05:53;;;;;;;53.13;24.90;;;;;;;0.65;100.00;99901.66;5060448;28;20425;-82
2024/03/10 04:08:26;;;;;;;56.45;25.17;;;;;;;0.70;100.00;99907.09;5055559;28;20416;-81
2024/03/10 04:11:00;;;;;;;57.63;26.55;;;;;;;0.75;100.00;99906.41;5046079;28;22404;-82
2024/03/10 04:13:33;;;;;;;55.55;25.83;;;;;;;0.73;100.00;99906.63;5054142;28;21020;-81
2024/03/10 04:16:05;;;;;;;58.08;25.45;;;;;;;0.70;100.00;99912.47;5054387;28;20420;-82
2024/03/10 04:18:39;;;;;;;55.78;26.45;;;;;;;0.66;100.00;99906.78;5054667;28;20427;-79
2024/03/10 04:21:12;;;;;;;50.13;24.30;;;;;;;0.63;100.00;99909.09;5053670;28;20801;-80
2024/03/10 04:23:45;;;;;;;51.53;25.67;;;;;;;0.70;100.00;99911.66;5054427;28;20452;-79
2024/03/10 04:26:22;;;;;;;52.47;26.05;;;;;;;0.76;100.00;99918.75;5054085;28;21193;-81
2024/03/10 04:28:57;;;;;;;51.85;24.95;;;;;;;0.76;100.00;99914.22;5055506;28;20791;-81
2024/03/10 04:31:32;;;;;;;54.50;25.15;;;;;;;0.70;100.00;99922.38;5043256;28;20429;-81
2024/03/10 04:34:06;;;;;;;52.70;25.57;;;;;;;0.91;100.00;99916.44;5061018;28;20423;-81
2024/03/10 04:36:34;;;;;;;53.20;25.25;;;;;;;0.66;100.00;99922.00;5058832;28;20412;-82
2024/03/10 04:39:09;;;;;;;56.53;26.42;;;;;;;0.59;100.00;99919.44;5043285;28;20439;-80
2024/03/10 04:41:43;;;;;;;52.83;25.75;;;;;;;0.71;100.00;99918.66;5056103;28;20436;-82
2024/03/10 04:44:17;;;;;;;53.88;25.10;;;;;;;0.66;100.00;99913.97;5042596;28;20440;-82
2024/03/10 04:46:51;;;;;;;55.75;26.15;;;;;;;0.73;100.00;99909.31;5046284;28;20452;-82
2024/03/10 04:49:19;;;;;;;51.72;25.05;;;;;;;0.49;100.00;99909.31;5055327;28;20426;-81
2024/03/10 04:51:53;;;;;;;54.08;26.17;;;;;;;0.66;100.00;99908.63;5054148;28;20419;-82
2024/03/10 04:54:26;;;;;;;54.03;25.70;;;;;;;0.71;100.00;99903.38;5053893;28;20444;-81
2024/03/10 04:56:54;;;;;;;51.25;25.27;;;;;;;0.57;100.00;99899.31;5055125;28;20436;-81
2024/03/10 04:59:28;;;;;;;51.95;25.75;;;;;;;0.56;100.00;99897.69;5042707;28;20433;-81
2024/03/10 05:01:57;;;;;;;50.22;23.92;;;;;;;0.63;100.00;99899.19;5040515;28;20420;-82
2024/03/10 05:04:26;;;;;;;53.47;25.75;;;;;;;0.53;100.00;99901.63;5043249;28;20432;-81
2024/03/10 05:06:59;;;;;;;52.60;24.58;;;;;;;0.42;100.00;99905.94;5042620;28;20802;-81
2024/03/10 05:09:27;;;;;;;49.00;24.23;;;;;;;0.45;100.00;99902.00;5034461;28;20425;-82
2024/03/10 05:12:02;;;;;;;54.17;26.48;;;;;;;0.54;100.00;99894.41;5054087;28;20415;-82
2024/03/10 05:14:36;;;;;;;51.05;25.08;;;;;;;0.52;100.00;99896.53;5053766;28;22249;-82
2024/03/10 05:17:11;;;;;;;57.05;25.75;;;;;;;0.47;100.00;99898.03;5047163;28;20951;-81
2024/03/10 05:19:44;;;;;;;55.00;26.50;;;;;;;0.48;100.00;99902.34;5056204;28;20414;-80
2024/03/10 05:22:13;;;;;;;57.22;27.60;;;;;;;0.53;100.00;99911.53;5043475;28;20772;-81
2024/03/10 05:24:42;;;;;;;56.00;25.45;;;;;;;0.47;100.00;99906.06;5043373;28;20911;-82
2024/03/10 05:27:16;;;;;;;58.28;26.88;;;;;;;0.55;100.00;99906.75;5041107;28;20438;-81
2024/03/10 05:29:52;;;;;;;55.88;26.42;;;;;;;0.47;100.00;99903.38;5056889;28;20428;-82
2024/03/10 05:32:26;;;;;;;60.20;26.20;;;;;;;1.00;100.00;99893.56;5044680;28;20700;-82
2024/03/10 05:34:56;;;;;;;53.15;25.65;;;;;;;0.84;100.00;99884.41;5037434;28;20440;-81
2024/03/10 05:37:24;;;;;;;57.55;26.50;;;;;;;0.96;100.00;99894.28;5056978;28;20430;-82
2024/03/10 05:39:58;;;;;;;49.85;25.15;;;;;;;0.75;100.00;99898.38;5054975;28;20427;-81
2024/03/10 05:42:26;;;;;;;54.53;26.55;;;;;;;0.96;100.00;99903.13;5053861;28;20417;-80
2024/03/10 05:45:02;;;;;;;58.10;26.80;;;;;;;1.09;100.00;99906.59;5045889;28;20826;-80
2024/03/10 05:47:37;;;;;;;58.42;27.35;;;;;;;1.09;100.00;99904.75;5046987;28;20437;-80
2024/03/10 05:50:10;;;;;;;59.10;27.38;;;;;;;1.30;100.00;99897.94;5046544;28;20443;-80
2024/03/10 05:52:38;;;;;;;62.20;28.33;;;;;;;1.72;100.00;99896.84;5054287;28;20813;-82
2024/03/10 05:55:12;;;;;;;60.13;28.13;;;;;;;1.52;100.00;99892.72;5058649;28;20428;-79
2024/03/10 05:57:45;;;;;;;54.90;25.98;;;;;;;1.59;100.00;99886.41;5054837;28;20420;-81
2024/03/10 06:00:19;;;;;;;55.90;27.17;;;;;;;1.98;100.00;99894.63;5033200;28;21237;-81
2024/03/10 06:02:49;;;;;;;55.97;26.70;;;;;;;1.86;100.00;99890.13;5050320;28;20439;-81
2024/03/10 06:05:17;;;;;;;58.17;26.08;;;;;;;1.90;100.00;99889.66;5035797;28;20438;-81
2024/03/10 06:07:51;;;;;;;56.83;26.50;;;;;;;1.97;100.00;99888.41;5053271;28;20440;-80
2024/03/10 06:10:24;;;;;;;56.05;26.48;;;;;;;1.91;100.00;99900.13;5037255;28;20440;-81
2024/03/10 06:12:53;;;;;;;53.95;25.58;;;;;;;2.16;100.00;99890.91;5044677;28;20428;-82
2024/03/10 06:15:21;;;;;;;57.20;26.75;;;;;;;2.15;100.00;99895.44;5043348;28;20435;-81
2024/03/10 06:18:04;;;;;;;57.70;26.92;;;;;;;2.11;100.00;99893.47;5055187;28;20431;-82
2024/03/10 06:26:10;;;;;;;56.85;26.67;;;;;;;2.16;100.00;99891.69;5042005;28;20439;-80
2024/03/10 06:28:45;;;;;;;57.60;26.65;;;;;;;2.20;100.00;99887.47;5034056;28;20441;-80
2024/03/10 06:31:16;;;;;;;54.78;26.63;;;;;;;2.29;100.00;99895.13;5047871;28;20421;-79
2024/03/10 06:33:51;;;;;;;57.05;26.88;;;;;;;2.27;100.00;99891.88;5051958;28;20431;-81
2024/03/10 06:36:19;;;;;;;53.92;26.13;;;;;;;2.51;100.00;99897.88;5045846;28;20435;-81
2024/03/10 06:38:52;;;;;;;55.00;27.10;;;;;;;2.41;100.00;99901.22;5041667;28;20436;-81
2024/03/10 06:41:21;;;;;;;56.40;27.60;;;;;;;2.66;100.00;99899.97;5054135;28;20796;-82
2024/03/10 06:43:55;;;;;;;55.05;27.38;;;;;;;2.60;100.00;99891.03;5056545;28;22167;-82
2024/03/10 06:46:29;;;;;;;56.70;26.73;;;;;;;2.53;100.00;99885.03;5051019;28;20418;-80
2024/03/10 06:49:03;;;;;;;53.42;26.20;;;;;;;2.52;100.00;99891.44;5053304;28;20416;-82
2024/03/10 06:51:32;;;;;;;56.53;27.88;;;;;;;2.63;100.00;99889.75;5036087;28;20433;-80
2024/03/10 06:54:05;;;;;;;52.83;26.40;;;;;;;2.69;100.00;99894.09;5051433;28;20439;-80
2024/03/10 06:56:39;;;;;;;54.67;27.00;;;;;;;2.87;100.00;99890.31;5037826;28;20424;-81
2024/03/10 06:59:13;;;;;;;57.40;27.88;;;;;;;2.82;100.00;99884.91;5047595;28;20413;-81
2024/03/10 07:01:47;;;;;;;54.35;27.27;;;;;;;2.86;100.00;99884.16;5035231;28;20435;-82
2024/03/10 07:04:23;;;;;;;56.88;27.35;;;;;;;3.10;100.00;99878.53;5043155;28;20434;-83
2024/03/10 07:06:56;;;;;;;57.80;28.00;;;;;;;3.12;100.00;99878.28;5052049;28;20429;-79
2024/03/10 07:09:25;;;;;;;58.60;27.20;;;;;;;3.19;100.00;99877.03;5044158;28;20427;-82
2024/03/10 07:11:53;;;;;;;53.80;27.80;;;;;;;3.15;100.00;99880.47;5050495;28;20421;-80
2024/03/10 07:14:22;;;;;;;57.72;28.00;;;;;;;3.37;100.00;99886.66;5035331;28;20433;-81
2024/03/10 07:16:50;;;;;;;58.90;28.17;;;;;;;3.39;100.00;99881.84;5042079;28;20436;-82
2024/03/10 07:19:18;;;;;;;56.57;28.07;;;;;;;3.46;100.00;99883.53;5052661;28;20482;-83
2024/03/10 07:21:48;;;;;;;56.60;26.63;;;;;;;3.46;100.00;99878.16;5034958;28;20429;-84
2024/03/10 07:24:21;;;;;;;55.75;27.77;;;;;;;3.71;100.00;99883.78;5059431;28;20537;-81
2024/03/10 07:26:50;;;;;;;50.20;25.73;;;;;;;3.65;100.00;99873.25;5044061;28;20435;-82
2024/03/10 07:29:18;;;;;;;54.03;26.10;;;;;;;3.81;100.00;99872.34;5051507;28;20425;-81
2024/03/10 07:31:51;;;;;;;55.63;26.77;;;;;;;3.89;100.00;99873.72;5053913;28;20424;-80
2024/03/10 07:34:20;;;;;;;55.78;27.15;;;;;;;3.97;100.00;99881.34;5054427;28;20444;-80
2024/03/10 07:36:54;;;;;;;51.47;26.50;;;;;;;3.92;100.00;99884.81;5055698;28;20421;-82
2024/03/10 07:39:23;;;;;;;57.28;28.73;;;;;;;3.97;100.00;99886.72;5055631;28;20421;-79
2024/03/10 07:41:57;;;;;;;49.83;25.83;;;;;;;4.03;100.00;99879.50;5055761;28;20444;-81
2024/03/10 07:44:31;;;;;;;52.65;26.58;;;;;;;4.14;100.00;99878.53;5055697;28;20438;-81
2024/03/10 07:47:05;;;;;;;53.75;27.20;;;;;;;4.09;100.00;99876.59;5054553;28;20427;-82
2024/03/10 07:49:38;;;;;;;51.15;26.98;;;;;;;4.04;100.00;99876.56;5041522;28;20435;-82
2024/03/10 07:52:08;;;;;;;54.30;27.00;;;;;;;4.23;100.00;99873.50;5052971;28;20428;-79
2024/03/10 07:54:37;;;;;;;52.95;26.88;;;;;;;4.26;100.00;99870.28;5046214;28;21280;-82
2024/03/10 07:57:05;;;;;;;51.88;26.05;;;;;;;4.33;100.00;99867.38;5053391;28;20888;-80
2024/03/10 07:59:33;;;;;;;51.85;26.27;;;;;;;4.45;100.00;99870.69;5042379;28;20424;-82
2024/03/10 08:02:07;;;;;;;51.85;26.48;;;;;;;4.48;100.00;99863.97;5055586;28;20419;-81
2024/03/10 08:04:36;;;;;;;53.22;26.95;;;;;;;4.58;100.00;99867.56;5045680;28;20425;-82
2024/03/10 08:07:11;;;;;;;51.47;26.43;;;;;;;4.62;100.00;99861.63;5044920;28;20937;-82
2024/03/10 08:09:45;;;;;;;53.53;27.10;;;;;;;4.62;100.00;99848.16;5060738;28;20426;-79
2024/03/10 08:12:13;;;;;;;52.35;26.65;;;;;;;4.68;100.00;99860.59;5051295;28;20432;-82
2024/03/10 08:14:45;;;;;;;53.15;26.23;;;;;;;4.75;100.00;99859.28;5049865;28;20437;-83
2024/03/10 08:17:18;;;;;;;52.22;26.30;;;;;;;4.88;100.00;99867.97;5050604;28;20428;-85
2024/03/10 08:19:47;;;;;;;51.80;26.65;;;;;;;4.93;100.00;99870.72;5066016;28;20416;-81
2024/03/10 08:22:21;;;;;;;48.80;25.73;;;;;;;5.20;100.00;99884.03;5042803;28;20437;-81
2024/03/10 08:24:55;;;;;;;50.95;25.52;;;;;;;5.29;100.00;99868.16;5044645;28;20437;-84
2024/03/10 08:27:28;;;;;;;46.73;25.40;;;;;;;5.23;100.00;99863.81;5062908;28;20440;-82
2024/03/10 08:30:01;;;;;;;50.05;25.95;;;;;;;5.27;100.00;99878.41;5047923;28;20910;-81
2024/03/10 08:32:35;;;;;;;47.00;25.05;;;;;;;5.36;100.00;99882.22;5048413;28;20439;-84
2024/03/10 08:35:07;;;;;;;49.22;25.35;;;;;;;5.44;100.00;99872.78;5061207;28;20436;-82
2024/03/10 08:37:44;;;;;;;45.15;25.42;;;;;;;5.44;100.00;99875.47;5044276;28;20430;-82
2024/03/10 08:40:14;;;;;;;51.75;26.85;;;;;;;5.49;100.00;99878.19;5035057;28;20433;-82
2024/03/10 08:42:48;;;;;;;50.53;26.55;;;;;;;5.60;100.00;99884.44;5040079;28;20433;-83
2024/03/10 08:45:21;;;;;;;48.72;25.45;;;;;;;5.53;100.00;99891.97;5056702;28;20435;-83
2024/03/10 08:47:55;;;;;;;47.83;24.85;;;;;;;5.88;100.00;99898.53;5055499;28;21699;-83
2024/03/10 08:50:29;;;;;;;44.42;25.35;;;;;;;5.82;100.00;99899.63;5046186;28;20431;-81
2024/03/10 08:53:04;;;;;;;49.80;26.83;;;;;;;5.75;100.00;99892.56;5053793;28;20474;-81
2024/03/10 08:55:38;;;;;;;50.27;25.83;;;;;;;5.88;100.00;99895.81;5055657;28;20440;-83
2024/03/10 08:58:06;;;;;;;47.75;25.95;;;;;;;6.09;100.00;99891.28;5046003;28;20436;-82
2024/03/10 09:00:39;;;;;;;46.13;25.33;;;;;;;6.00;100.00;99885.63;5051614;28;20420;-83
2024/03/10 09:03:13;;;;;;;45.60;25.52;;;;;;;6.02;100.00;99882.63;5054699;28;20429;-83
2024/03/10 09:05:46;;;;;;;46.20;25.23;;;;;;;6.20;100.00;99886.69;5051117;28;20919;-84
2024/03/10 09:08:17;;;;;;;46.45;24.70;;;;;;;6.34;100.00;99890.50;5044109;28;20766;-82
2024/03/10 09:10:45;;;;;;;45.13;24.95;;;;;;;6.46;100.00;99882.09;5057694;28;20423;-80
2024/03/10 09:13:13;;;;;;;45.93;24.93;;;;;;;6.44;100.00;99885.06;5060388;28;20424;-82
2024/03/10 09:15:42;;;;;;;48.58;25.33;;;;;;;6.53;100.00;99890.75;5042438;28;20447;-82
2024/03/10 09:18:15;;;;;;;46.75;25.10;;;;;;;6.41;100.00;99876.72;5054524;28;20425;-80
2024/03/10 09:20:45;;;;;;;43.75;25.08;;;;;;;6.53;100.00;99882.66;5056770;28;20430;-81
2024/03/10 09:23:20;;;;;;;44.50;24.42;;;;;;;6.54;100.00;99888.84;5062724;28;20419;-83
2024/03/10 09:25:54;;;;;;;46.10;24.30;;;;;;;6.50;100.00;99885.06;5048751;28;20453;-84
2024/03/10 09:28:28;;;;;;;43.03;23.67;;;;;;;6.74;100.00;99882.59;5051748;28;20745;-82
2024/03/10 09:31:02;;;;;;;44.87;24.70;;;;;;;6.67;100.00;99873.97;5058862;28;20433;-82
2024/03/10 09:33:30;;;;;;;43.05;23.23;;;;;;;6.76;100.00;99875.03;5048983;28;20439;-82
2024/03/10 09:36:05;;;;;;;44.28;24.33;;;;;;;6.56;100.00;99870.44;5039082;28;20460;-82
2024/03/10 09:38:44;;;;;;;47.08;24.60;;;;;;;6.72;100.00;99872.03;5039716;28;20940;-81
2024/03/10 09:41:18;;;;;;;46.55;24.98;;;;;;;6.87;100.00;99871.19;5042179;28;20426;-80
2024/03/10 09:43:50;;;;;;;46.57;25.37;;;;;;;7.04;100.00;99876.28;5044244;28;20431;-81
2024/03/10 09:46:24;;;;;;;41.88;24.15;;;;;;;7.11;100.00;99874.13;5057295;28;20424;-82
2024/03/10 09:48:52;;;;;;;44.17;24.70;;;;;;;7.28;100.00;99865.66;5052707;28;20413;-79
2024/03/10 09:51:21;;;;;;;43.78;23.80;;;;;;;6.95;100.00;99861.72;4999620;28;20420;-80
2024/03/10 09:53:58;;;;;;;47.75;25.27;;;;;;;7.11;100.00;99865.16;5053324;28;20421;-79
2024/03/10 09:56:27;;;;;;;43.67;24.90;;;;;;;7.25;100.00;99863.50;5042616;28;20412;-82
2024/03/10 09:59:03;;;;;;;43.30;24.52;;;;;;;7.42;100.00;99851.50;5044610;28;20585;-80
2024/03/10 10:01:37;;;;;;;45.63;24.90;;;;;;;7.59;100.00;99853.84;5025621;28;20451;-80
2024/03/10 10:04:11;;;;;;;43.87;25.23;;;;;;;7.54;100.00;99846.56;5023970;28;20423;-84
2024/03/10 10:06:45;;;;;;;40.83;23.98;;;;;;;7.71;100.00;99858.94;5040981;28;20429;-80
2024/03/10 10:09:26;;;;;;;45.13;24.38;;;;;;;7.42;100.00;99848.81;5028328;28;20423;-80
2024/03/10 10:11:59;;;;;;;43.35;23.20;;;;;;;7.61;100.00;99857.91;5047019;28;20415;-81
2024/03/10 10:14:33;;;;;;;43.53;23.48;;;;;;;7.68;100.00;99864.88;5053089;28;20446;-82
2024/03/10 10:17:06;;;;;;;40.58;24.25;;;;;;;7.64;100.00;99857.34;5040257;28;20423;-80
2024/03/10 10:19:36;;;;;;;43.75;23.63;;;;;;;7.77;100.00;99855.09;5038469;28;20431;-80
2024/03/10 10:22:11;;;;;;;44.45;23.65;;;;;;;7.90;100.00;99851.75;5021461;28;20442;-79
2024/03/10 10:24:41;;;;;;;42.40;24.15;;;;;;;7.74;100.00;99855.66;5043245;28;20431;-80
2024/03/10 10:27:14;;;;;;;41.25;23.10;;;;;;;7.74;100.00;99848.31;5037335;28;20438;-81
2024/03/10 10:29:49;;;;;;;43.10;24.05;;;;;;;7.79;100.00;99833.97;5029293;28;20411;-81
2024/03/10 10:32:24;;;;;;;46.90;26.37;;;;;;;8.03;100.00;99836.75;5041341;28;20412;-81
2024/03/10 10:34:57;;;;;;;41.42;24.05;;;;;;;8.20;100.00;99833.59;5042737;28;20895;-83
2024/03/10 10:37:34;;;;;;;42.10;23.37;;;;;;;8.28;100.00;99834.91;5038024;28;20523;-82
2024/03/10 10:40:11;;;;;;;61.58;33.08;;;;;;;8.26;100.00;99829.78;5023070;28;20423;-80
2024/03/10 10:42:39;;;;;;;41.38;23.95;;;;;;;8.16;100.00;99827.13;5019331;28;20437;-80
2024/03/10 10:45:09;;;;;;;43.13;24.73;;;;;;;8.30;100.00;99828.09;5038354;28;20420;-81
2024/03/10 10:47:42;;;;;;;43.20;24.30;;;;;;;8.24;100.00;99833.84;5042520;28;20970;-80
2024/03/10 10:50:24;;;;;;;40.40;23.70;;;;;;;8.29;100.00;99836.53;5019042;28;20430;-79
2024/03/10 10:52:58;;;;;;;41.67;23.35;;;;;;;8.13;100.00;99831.25;5029645;28;20418;-82
2024/03/10 10:55:33;;;;;;;40.90;23.00;;;;;;;8.10;100.00;99818.25;5042590;28;20432;-81
2024/03/10 10:58:05;;;;;;;42.13;23.80;;;;;;;8.34;100.00;99821.03;5037258;28;20665;-80
2024/03/10 11:00:34;;;;;;;40.47;23.33;;;;;;;8.41;100.00;99817.97;5040830;28;20420;-81
2024/03/10 11:03:13;;;;;;;42.78;23.92;;;;;;;8.48;100.00;99814.97;5020800;28;21913;-81
2024/03/10 11:06:27;;;;;;;42.33;23.13;;;;;;;8.68;100.00;99811.22;5043061;28;20430;-82
2024/03/10 11:08:56;;;;;;;38.58;22.77;;;;;;;8.87;100.00;99808.56;5021812;28;20747;-81
2024/03/10 11:11:47;;;;;;;40.58;24.58;;;;;;;8.53;100.00;99797.81;5019645;28;20431;-81
2024/03/10 11:14:17;;;;;;;44.83;27.08;;;;;;;8.51;100.00;99798.13;5042593;28;20408;-80
2024/03/10 11:16:50;;;;;;;37.80;22.08;;;;;;;8.85;100.00;99797.16;5031646;28;20428;-79
2024/03/10 11:19:27;;;;;;;41.85;24.08;;;;;;;8.57;100.00;99786.09;5024222;28;20482;-79
2024/03/10 11:22:00;;;;;;;46.13;26.42;;;;;;;8.51;100.00;99787.28;5025247;28;20436;-79
2024/03/10 11:24:35;;;;;;;42.13;24.57;;;;;;;8.79;100.00;99779.34;5040341;28;20515;-78
2024/03/10 11:27:19;;;;;;;42.88;24.33;;;;;;;8.92;100.00;99775.13;5038797;28;20442;-81
2024/03/10 11:29:52;;;;;;;40.60;23.30;;;;;;;8.83;100.00;99778.47;5036501;28;20450;-79
2024/03/10 11:32:32;;;;;;;40.45;23.45;;;;;;;8.99;100.00;99781.00;5042426;28;20435;-80
2024/03/10 11:35:06;;;;;;;41.50;23.03;;;;;;;9.05;100.00;99770.91;5019496;28;20422;-80
2024/03/10 11:37:36;;;;;;;41.65;24.98;;;;;;;9.05;100.00;99768.97;5015560;28;20424;-80
2024/03/10 11:40:06;;;;;;;39.80;23.60;;;;;;;9.12;100.00;99758.56;5032993;28;21001;-79
2024/03/10 11:42:36;;;;;;;41.70;23.85;;;;;;;9.13;100.00;99757.47;5025589;28;20427;-80
2024/03/10 11:45:12;;;;;;;39.72;23.15;;;;;;;9.07;100.00;99750.47;5037470;28;20431;-80
2024/03/10 11:47:40;;;;;;;43.67;28.02;;;;;;;9.04;100.00;99747.56;5020397;28;20444;-80
2024/03/10 11:50:09;;;;;;;38.65;23.27;;;;;;;9.30;100.00;99748.81;4996164;28;20436;-81
2024/03/10 11:52:37;;;;;;;40.87;23.17;;;;;;;9.15;100.00;99741.69;5019562;28;20438;-81
2024/03/10 11:55:14;;;;;;;38.17;22.65;;;;;;;9.32;100.00;99745.78;5032435;28;20436;-79
2024/03/10 11:57:53;;;;;;;37.58;22.67;;;;;;;9.31;100.00;99745.00;5032090;28;20442;-79
2024/03/10 12:00:26;;;;;;;39.72;23.55;;;;;;;9.35;100.00;99726.22;5021578;28;21048;-79